createdAt,value
2019-04-03T00:00:44.476Z,95142.91
2019-04-03T00:03:13.020Z,95124.09
2019-04-03T00:05:41.606Z,95130.83
2019-04-03T00:08:10.269Z,95129.81
2019-04-03T00:10:38.928Z,95133.78
2019-04-03T00:13:10.462Z,95133.44
2019-04-03T00:15:37.814Z,95132.95
2019-04-03T00:18:06.396Z,95120.79
2019-04-03T00:20:35.137Z,95127.38
2019-04-03T00:23:03.708Z,95124.57
2019-04-03T00:25:32.195Z,95141.93
2019-04-03T00:28:00.778Z,95128.22
2019-04-03T00:30:29.407Z,95116.66
2019-04-03T00:32:58.210Z,95122.02
2019-04-03T00:35:26.965Z,95115.36
2019-04-03T00:37:55.526Z,95113.08
2019-04-03T00:40:24.780Z,95116.31
2019-04-03T00:42:54.609Z,95117.50
2019-04-03T00:45:24.522Z,95104.24
2019-04-03T00:47:55.275Z,95106.64
2019-04-03T00:50:26.249Z,95103.33
2019-04-03T00:52:57.061Z,95104.16
2019-04-03T00:55:26.673Z,95099.98
2019-04-03T00:57:56.508Z,95094.72
2019-04-03T01:00:26.429Z,95105.38
2019-04-03T01:02:58.250Z,95100.17
2019-04-03T01:05:28.179Z,95088.45
2019-04-03T01:07:59.072Z,95092.18
2019-04-03T01:10:29.301Z,95089.13
2019-04-03T01:12:56.986Z,95100.08
2019-04-03T01:15:25.545Z,95101.63
2019-04-03T01:17:54.133Z,95092.18
2019-04-03T01:20:22.940Z,95091.17
2019-04-03T01:22:51.681Z,95089.05
2019-04-03T01:25:20.159Z,95086.59
2019-04-03T01:27:48.981Z,95091.35
2019-04-03T01:30:17.630Z,95081.05
2019-04-03T01:32:46.819Z,95083.35
2019-04-03T01:35:17.407Z,95082.48
2019-04-03T01:37:46.165Z,95084.26
2019-04-03T01:40:14.748Z,95089.01
2019-04-03T01:42:43.354Z,95079.47
2019-04-03T01:45:11.906Z,95078.53
2019-04-03T01:47:40.466Z,95066.53
2019-04-03T01:50:09.332Z,95063.72
2019-04-03T01:52:37.890Z,95063.95
2019-04-03T01:55:07.584Z,95060.38
2019-04-03T01:57:36.699Z,95062.59
2019-04-03T02:00:07.722Z,95058.26
2019-04-03T02:02:38.782Z,95057.59
2019-04-03T02:05:07.755Z,95061.75
2019-04-03T02:07:36.379Z,95057.38
2019-04-03T02:10:07.916Z,95061.95
2019-04-03T02:12:36.410Z,95050.38
2019-04-03T02:15:05.638Z,95065.98
2019-04-03T02:17:34.390Z,95056.92
2019-04-03T02:20:03.236Z,95056.88
2019-04-03T02:22:31.743Z,95060.84
2019-04-03T02:25:01.820Z,95058.83
2019-04-03T02:27:33.046Z,95050.83
2019-04-03T02:30:01.124Z,95057.36
2019-04-03T02:32:29.612Z,95061.36
2019-04-03T02:34:58.579Z,95052.00
2019-04-03T02:37:27.503Z,95059.95
2019-04-03T02:39:59.056Z,95064.69
2019-04-03T02:42:26.398Z,95065.86
2019-04-03T02:44:55.313Z,95060.32
2019-04-03T02:47:24.008Z,95064.20
2019-04-03T02:49:52.578Z,95058.52
2019-04-03T02:52:24.071Z,95057.81
2019-04-03T02:54:52.435Z,95056.79
2019-04-03T02:57:20.939Z,95062.53
2019-04-03T02:59:49.847Z,95060.93
2019-04-03T03:02:18.856Z,95051.50
2019-04-03T03:04:47.543Z,95055.11
2019-04-03T03:07:16.512Z,95053.51
2019-04-03T03:09:47.721Z,95060.80
2019-04-03T03:12:16.860Z,95058.14
2019-04-03T03:14:45.616Z,95062.80
2019-04-03T03:17:14.530Z,95072.45
2019-04-03T03:19:43.668Z,95065.64
2019-04-03T03:22:14.670Z,95079.91
2019-04-03T03:24:44.544Z,95078.13
2019-04-03T03:27:13.276Z,95072.00
2019-04-03T03:29:41.897Z,95075.20
2019-04-03T03:32:18.784Z,95077.14
2019-04-03T03:34:54.101Z,95076.19
2019-04-03T03:37:12.914Z,95076.38
2019-04-03T03:39:44.115Z,95074.25
2019-04-03T03:42:14.046Z,95064.11
2019-04-03T03:44:45.226Z,95065.41
2019-04-03T03:47:13.816Z,95076.50
2019-04-03T03:49:43.603Z,95067.34
2019-04-03T03:52:13.801Z,95065.80
2019-04-03T03:54:43.055Z,95055.39
2019-04-03T03:57:12.144Z,95051.53
2019-04-03T03:59:40.910Z,95062.35
2019-04-03T04:02:09.510Z,95063.16
2019-04-03T04:04:38.520Z,95071.72
2019-04-03T04:07:07.212Z,95072.83
2019-04-03T04:09:35.836Z,95070.52
2019-04-03T04:12:06.719Z,95079.43
2019-04-03T04:14:36.331Z,95078.63
2019-04-03T04:17:08.435Z,95078.44
2019-04-03T04:19:36.719Z,95083.62
2019-04-03T04:22:05.396Z,95079.09
2019-04-03T04:24:35.105Z,95070.77
2019-04-03T04:27:04.243Z,95087.09
2019-04-03T04:29:32.917Z,95084.55
2019-04-03T04:32:01.583Z,95091.91
2019-04-03T04:34:30.063Z,95086.64
2019-04-03T04:36:59.075Z,95091.45
2019-04-03T04:39:29.395Z,95086.98
2019-04-03T04:41:58.050Z,95091.16
2019-04-03T04:44:26.548Z,95093.25
2019-04-03T04:46:55.183Z,95079.73
2019-04-03T04:49:23.798Z,95079.16
2019-04-03T04:51:52.570Z,95081.64
2019-04-03T04:54:21.106Z,95059.63
2019-04-03T04:56:49.734Z,95093.81
2019-04-03T04:59:18.402Z,95086.23
2019-04-03T05:01:48.773Z,95090.23
2019-04-03T05:04:17.103Z,95091.82
2019-04-03T05:06:45.776Z,95089.14
2019-04-03T05:09:14.414Z,95091.98
2019-04-03T05:11:42.996Z,95086.66
2019-04-03T05:14:11.658Z,95087.05
2019-04-03T05:16:40.314Z,95090.05
2019-04-03T05:19:14.787Z,95095.02
2019-04-03T05:21:39.251Z,95091.52
2019-04-03T05:24:13.118Z,95093.97
2019-04-03T05:26:38.357Z,95086.19
2019-04-03T05:29:06.887Z,95087.92
2019-04-03T05:31:36.915Z,95095.84
2019-04-03T05:34:05.865Z,95094.59
2019-04-03T05:36:34.506Z,95090.21
2019-04-03T05:39:04.810Z,95090.81
2019-04-03T05:41:33.554Z,95086.13
2019-04-03T05:44:02.793Z,95080.41
2019-04-03T05:46:31.391Z,95078.25
2019-04-03T05:49:00.132Z,95080.69
2019-04-03T05:51:29.738Z,95068.23
2019-04-03T05:53:58.944Z,95072.84
2019-04-03T05:56:27.570Z,95070.63
2019-04-03T05:59:00.382Z,95072.41
2019-04-03T06:01:26.870Z,95076.20
2019-04-03T06:03:55.519Z,95077.57
2019-04-03T06:06:24.352Z,95071.30
2019-04-03T06:08:54.009Z,95077.77
2019-04-03T06:11:23.274Z,95074.46
2019-04-03T06:13:51.922Z,95076.28
2019-04-03T06:16:23.407Z,95073.21
2019-04-03T06:18:50.901Z,95067.94
2019-04-03T06:21:19.639Z,95072.51
2019-04-03T06:23:48.532Z,95047.77
2019-04-03T06:26:17.487Z,95063.91
2019-04-03T06:28:47.652Z,95052.72
2019-04-03T06:31:16.404Z,95070.94
2019-04-03T06:33:45.027Z,95073.94
2019-04-03T06:36:16.861Z,95070.64
2019-04-03T06:38:44.084Z,95062.05
2019-04-03T06:41:12.794Z,95064.81
2019-04-03T06:43:41.808Z,95069.09
2019-04-03T06:46:10.427Z,95057.03
2019-04-03T06:48:38.864Z,95059.45
2019-04-03T06:51:07.541Z,95057.31
2019-04-03T06:53:36.166Z,95056.84
2019-04-03T06:56:07.820Z,95055.96
2019-04-03T06:58:39.402Z,95079.45
2019-04-03T07:01:05.746Z,95073.03
2019-04-03T07:03:35.061Z,95068.50
2019-04-03T07:06:04.411Z,95066.31
2019-04-03T07:08:35.421Z,95066.76
2019-04-03T07:11:03.439Z,95066.20
2019-04-03T07:13:32.112Z,95064.34
2019-04-03T07:16:00.624Z,95069.83
2019-04-03T07:18:29.177Z,95058.36
2019-04-03T07:20:57.857Z,95065.28
2019-04-03T07:23:27.806Z,95058.44
2019-04-03T07:25:56.847Z,95068.13
2019-04-03T07:28:25.511Z,95066.60
2019-04-03T07:30:54.487Z,95051.52
2019-04-03T07:33:23.326Z,95053.97
2019-04-03T07:35:51.872Z,95080.22
2019-04-03T07:38:22.139Z,95070.95
2019-04-03T07:40:52.010Z,95087.86
2019-04-03T07:43:21.095Z,95068.81
2019-04-03T07:45:49.587Z,95084.88
2019-04-03T07:48:18.248Z,95071.27
2019-04-03T07:50:47.032Z,95074.88
2019-04-03T07:53:15.670Z,95076.80
2019-04-03T07:55:44.424Z,95076.22
2019-04-03T07:58:13.330Z,95074.41
2019-04-03T08:00:42.127Z,95073.16
2019-04-03T08:03:10.696Z,95069.80
2019-04-03T08:05:39.360Z,95073.39
2019-04-03T08:08:07.928Z,95076.05
2019-04-03T08:10:37.822Z,95070.98
2019-04-03T08:13:07.547Z,95076.87
2019-04-03T08:15:36.402Z,95061.56
2019-04-03T08:18:05.182Z,95067.95
2019-04-03T08:20:33.999Z,95064.03
2019-04-03T08:23:04.684Z,95065.12
2019-04-03T08:25:33.247Z,95050.11
2019-04-03T08:28:02.065Z,95050.71
2019-04-03T08:30:30.703Z,95065.69
2019-04-03T08:32:59.329Z,95044.34
2019-04-03T08:35:28.005Z,95053.59
2019-04-03T08:37:56.573Z,95048.14
2019-04-03T08:40:25.219Z,95051.90
2019-04-03T08:42:53.911Z,95047.19
2019-04-03T08:45:22.790Z,95051.97
2019-04-03T08:47:51.377Z,95054.56
2019-04-03T08:50:20.053Z,95051.57
2019-04-03T08:52:48.909Z,95050.75
2019-04-03T08:55:17.584Z,95032.89
2019-04-03T08:57:46.926Z,95046.95
2019-04-03T09:00:16.279Z,95034.42
2019-04-03T09:02:44.897Z,95029.13
2019-04-03T09:05:14.704Z,95035.45
2019-04-03T09:07:44.106Z,95036.90
2019-04-03T09:10:13.525Z,95023.17
2019-04-03T09:12:42.127Z,95022.64
2019-04-03T09:15:11.325Z,95018.20
2019-04-03T09:17:40.178Z,95011.80
2019-04-03T09:20:12.548Z,95011.39
2019-04-03T09:22:40.019Z,95019.88
2019-04-03T09:25:09.722Z,95008.49
2019-04-03T09:27:40.334Z,94978.94
2019-04-03T09:30:11.317Z,94986.14
2019-04-03T09:32:40.029Z,94996.91
2019-04-03T09:35:09.305Z,94982.48
2019-04-03T09:37:38.416Z,94983.25
2019-04-03T09:40:08.262Z,94980.91
2019-04-03T09:42:36.973Z,94974.52
2019-04-03T09:45:08.298Z,94978.58
2019-04-03T09:47:37.413Z,94973.93
2019-04-03T09:50:08.198Z,94968.14
2019-04-03T09:52:42.331Z,94958.48
2019-04-03T09:55:07.643Z,94955.44
2019-04-03T09:57:36.603Z,94962.22
2019-04-03T10:00:10.580Z,94954.75
2019-04-03T10:02:40.180Z,94953.20
2019-04-03T10:05:09.031Z,94952.09
2019-04-03T10:07:37.664Z,94937.55
2019-04-03T10:10:08.029Z,94945.13
2019-04-03T10:12:36.874Z,94932.09
2019-04-03T10:15:07.858Z,94917.08
2019-04-03T10:17:38.325Z,94914.30
2019-04-03T10:20:10.101Z,94929.41
2019-04-03T10:22:38.727Z,94922.45
2019-04-03T10:25:10.787Z,94913.75
2019-04-03T10:27:42.623Z,94903.97
2019-04-03T10:30:12.745Z,94910.64
2019-04-03T10:32:41.479Z,94907.98
2019-04-03T10:35:10.428Z,94896.89
2019-04-03T10:37:39.075Z,94894.79
2019-04-03T10:40:10.288Z,94899.77
2019-04-03T10:42:39.123Z,94895.48
2019-04-03T10:45:09.216Z,94891.48
2019-04-03T10:47:42.982Z,94886.87
2019-04-03T10:50:09.298Z,94877.26
2019-04-03T10:52:38.222Z,94871.59
2019-04-03T10:55:08.396Z,94870.11
2019-04-03T10:57:37.239Z,94877.14
2019-04-03T11:00:08.779Z,94863.51
2019-04-03T11:02:37.616Z,94857.11
2019-04-03T11:05:08.726Z,94868.84
2019-04-03T11:07:37.896Z,94857.95
2019-04-03T11:10:09.902Z,94851.67
2019-04-03T11:12:38.590Z,94850.05
2019-04-03T11:15:11.556Z,94845.98
2019-04-03T11:17:39.675Z,94845.02
2019-04-03T11:20:10.784Z,94838.36
2019-04-03T11:22:42.137Z,94847.53
2019-04-03T11:25:14.021Z,94834.46
2019-04-03T11:27:43.650Z,94817.78
2019-04-03T11:30:17.367Z,94831.67
2019-04-03T11:32:45.185Z,94814.69
2019-04-03T11:35:15.597Z,94813.42
2019-04-03T11:37:44.232Z,94805.88
2019-04-03T11:40:17.310Z,94805.38
2019-04-03T11:42:44.572Z,94802.33
2019-04-03T11:45:14.971Z,94806.22
2019-04-03T11:47:46.180Z,94801.36
2019-04-03T11:50:14.903Z,94793.40
2019-04-03T11:52:43.575Z,94793.25
2019-04-03T11:55:12.549Z,94785.88
2019-04-03T11:57:41.215Z,94779.50
2019-04-03T12:00:14.371Z,94790.09
2019-04-03T12:02:44.356Z,94794.04
2019-04-03T12:05:17.373Z,94774.05
2019-04-03T12:07:45.742Z,94763.39
2019-04-03T12:10:14.871Z,94759.31
2019-04-03T12:12:43.791Z,94748.77
2019-04-03T12:15:16.087Z,94751.37
2019-04-03T12:17:43.403Z,94750.05
2019-04-03T12:20:15.313Z,94764.44
2019-04-03T12:22:43.226Z,94760.91
2019-04-03T12:25:12.235Z,94757.81
2019-04-03T12:27:40.865Z,94749.37
2019-04-03T12:30:10.405Z,94736.52
2019-04-03T12:32:43.569Z,94744.80
2019-04-03T12:35:11.007Z,94729.84
2019-04-03T12:37:39.962Z,94750.40
2019-04-03T12:40:10.396Z,94729.95
2019-04-03T12:42:38.955Z,94725.34
2019-04-03T12:45:08.546Z,94720.13
2019-04-03T12:47:37.238Z,94718.02
2019-04-03T12:50:07.692Z,94728.44
2019-04-03T12:52:36.599Z,94722.72
2019-04-03T12:55:08.639Z,94699.37
2019-04-03T12:57:39.270Z,94700.30
2019-04-03T13:00:11.449Z,94701.70
2019-04-03T13:02:40.485Z,94704.84
2019-04-03T13:05:09.888Z,94711.17
2019-04-03T13:07:38.526Z,94702.73
2019-04-03T13:10:10.088Z,94704.63
2019-04-03T13:12:39.202Z,94710.48
2019-04-03T13:15:12.547Z,94714.00
2019-04-03T13:17:43.469Z,94699.23
2019-04-03T13:20:12.016Z,94710.16
2019-04-03T13:22:42.517Z,94700.55
2019-04-03T13:25:11.857Z,94697.98
2019-04-03T13:27:40.751Z,94695.24
2019-04-03T13:30:12.823Z,94697.78
2019-04-03T13:32:41.860Z,94698.41
2019-04-03T13:35:10.731Z,94684.09
2019-04-03T13:37:39.710Z,94694.08
2019-04-03T13:40:09.285Z,94685.73
2019-04-03T13:42:38.002Z,94704.34
2019-04-03T13:45:09.339Z,94681.95
2019-04-03T13:47:41.031Z,94685.85
2019-04-03T13:50:09.935Z,94677.06
2019-04-03T13:52:42.909Z,94689.04
2019-04-03T13:55:09.756Z,94691.61
2019-04-03T13:57:38.716Z,94677.42
2019-04-03T14:00:18.156Z,94704.42
2019-04-03T14:02:38.756Z,94674.44
2019-04-03T14:05:08.828Z,94676.90
2019-04-03T14:07:40.367Z,94690.86
2019-04-03T14:10:09.892Z,94686.20
2019-04-03T14:12:42.986Z,94676.88
2019-04-03T14:15:09.094Z,94674.16
2019-04-03T14:17:38.879Z,94671.27
2019-04-03T14:20:09.110Z,94672.03
2019-04-03T14:22:37.736Z,94686.91
2019-04-03T14:25:17.964Z,94664.11
2019-04-03T14:27:38.504Z,94667.88
2019-04-03T14:30:11.147Z,94665.97
2019-04-03T14:32:39.341Z,94673.11
2019-04-03T14:35:34.166Z,94653.84
2019-04-03T14:37:39.142Z,94663.52
2019-04-03T14:40:11.121Z,94667.02
2019-04-03T14:42:38.871Z,94655.23
2019-04-03T14:45:08.280Z,94652.95
2019-04-03T14:47:36.936Z,94663.17
2019-04-03T14:50:07.344Z,94648.84
2019-04-03T14:52:36.342Z,94648.70
2019-04-03T14:55:17.211Z,94647.34
2019-04-03T14:57:37.238Z,94668.42
2019-04-03T15:00:22.993Z,94656.72
2019-04-03T15:02:40.305Z,94656.61
2019-04-03T15:05:09.338Z,94657.53
2019-04-03T15:07:37.939Z,94657.41
2019-04-03T15:10:07.435Z,94659.92
2019-04-03T15:12:38.608Z,94656.29
2019-04-03T15:15:06.983Z,94657.64
2019-04-03T15:17:37.195Z,94648.95
2019-04-03T15:20:08.384Z,94646.94
2019-04-03T15:22:37.320Z,94643.87
2019-04-03T15:25:06.444Z,94650.30
2019-04-03T15:27:35.022Z,94653.44
2019-04-03T15:30:08.817Z,94658.73
2019-04-03T15:32:35.733Z,94667.95
2019-04-03T15:35:05.573Z,94657.94
2019-04-03T15:37:34.810Z,94658.27
2019-04-03T15:40:03.849Z,94659.43
2019-04-03T15:42:32.499Z,94661.80
2019-04-03T15:45:01.169Z,94648.48
2019-04-03T15:47:36.554Z,94665.97
2019-04-03T15:50:00.454Z,94671.39
2019-04-03T15:52:29.399Z,94662.78
2019-04-03T15:54:58.474Z,94673.81
2019-04-03T15:57:26.972Z,94670.23
2019-04-03T15:59:55.514Z,94673.57
2019-04-03T16:02:24.075Z,94671.72
2019-04-03T16:04:52.751Z,94678.55
2019-04-03T16:07:21.660Z,94673.49
2019-04-03T16:09:51.382Z,94670.73
2019-04-03T16:12:20.483Z,94677.96
2019-04-03T16:14:51.185Z,94672.68
2019-04-03T16:17:20.029Z,94674.34
2019-04-03T16:19:48.701Z,94673.19
2019-04-03T16:22:17.283Z,94687.47
2019-04-03T16:24:45.915Z,94677.98
2019-04-03T16:27:14.994Z,94675.69
2019-04-03T16:29:43.787Z,94681.02
2019-04-03T16:32:12.764Z,94682.61
2019-04-03T16:34:42.657Z,94679.19
2019-04-03T16:37:11.663Z,94673.89
2019-04-03T16:39:40.340Z,94679.20
2019-04-03T16:42:08.953Z,94681.33
2019-04-03T16:44:37.985Z,94686.13
2019-04-03T16:47:06.774Z,94684.77
2019-04-03T16:49:35.806Z,94683.95
2019-04-03T16:52:05.780Z,94684.83
2019-04-03T16:54:34.710Z,94690.17
2019-04-03T16:57:03.709Z,94695.47
2019-04-03T16:59:35.467Z,94688.16
2019-04-03T17:02:03.024Z,94688.95
2019-04-03T17:04:33.041Z,94682.25
2019-04-03T17:07:02.047Z,94688.91
2019-04-03T17:09:32.815Z,94683.80
2019-04-03T17:12:01.073Z,94691.39
2019-04-03T17:14:29.990Z,94684.30
2019-04-03T17:16:58.619Z,94697.17
2019-04-03T17:19:27.198Z,94702.13
2019-04-03T17:21:56.035Z,94700.61
2019-04-03T17:24:24.710Z,94701.37
2019-04-03T17:26:57.405Z,94711.30
2019-04-03T17:29:23.653Z,94710.60
2019-04-03T17:31:52.145Z,94712.67
2019-04-03T17:34:21.176Z,94719.58
2019-04-03T17:36:52.341Z,94718.13
2019-04-03T17:39:20.219Z,94725.45
2019-04-03T17:41:48.791Z,94724.78
2019-04-03T17:44:17.461Z,94732.30
2019-04-03T17:46:48.743Z,94735.69
2019-04-03T17:49:16.376Z,94735.75
2019-04-03T17:51:45.128Z,94745.23
2019-04-03T17:54:13.964Z,94737.91
2019-04-03T17:56:43.088Z,94757.49
2019-04-03T17:59:12.251Z,94740.87
2019-04-03T18:01:40.816Z,94744.25
2019-04-03T18:04:09.497Z,94751.75
2019-04-03T18:06:38.154Z,94756.81
2019-04-03T18:09:08.991Z,94744.80
2019-04-03T18:11:37.640Z,94752.72
2019-04-03T18:14:06.335Z,94758.72
2019-04-03T18:16:34.952Z,94763.02
2019-04-03T18:19:04.924Z,94759.05
2019-04-03T18:21:34.068Z,94748.08
2019-04-03T18:24:02.709Z,94761.48
2019-04-03T18:26:31.339Z,94757.72
2019-04-03T18:28:59.952Z,94769.48
2019-04-03T18:31:28.578Z,94767.23
2019-04-03T18:33:57.068Z,94763.30
2019-04-03T18:36:28.386Z,94768.16
2019-04-03T18:38:56.012Z,94768.63
2019-04-03T18:41:24.646Z,94762.44
2019-04-03T18:43:54.441Z,94773.59
2019-04-03T18:46:32.002Z,94767.96
2019-04-03T18:48:58.892Z,94781.40
2019-04-03T18:51:24.276Z,94777.45
2019-04-03T18:53:52.790Z,94778.39
2019-04-03T18:56:21.410Z,94770.17
2019-04-03T18:58:50.032Z,94778.28
2019-04-03T19:01:18.906Z,94779.95
2019-04-03T19:03:47.606Z,94777.70
2019-04-03T19:06:16.166Z,94765.83
2019-04-03T19:08:44.794Z,94783.50
2019-04-03T19:11:13.382Z,94779.08
2019-04-03T19:13:44.474Z,94772.55
2019-04-03T19:16:15.433Z,94779.41
2019-04-03T19:18:42.952Z,94771.95
2019-04-03T19:21:23.701Z,94776.66
2019-04-03T19:23:49.677Z,94776.54
2019-04-03T19:26:12.259Z,94778.03
2019-04-03T19:28:40.756Z,94779.13
2019-04-03T19:31:09.364Z,94777.59
2019-04-03T19:33:38.333Z,94778.97
2019-04-03T19:36:06.986Z,94775.62
2019-04-03T19:38:35.886Z,94779.44
2019-04-03T19:41:05.141Z,94787.20
2019-04-03T19:43:33.778Z,94777.47
2019-04-03T19:46:02.435Z,94780.97
2019-04-03T19:48:31.017Z,94783.41
2019-04-03T19:51:02.691Z,94774.59
2019-04-03T19:53:29.921Z,94777.63
2019-04-03T19:55:58.515Z,94776.09
2019-04-03T19:58:29.131Z,94807.60
2019-04-03T20:00:57.505Z,94773.23
2019-04-03T20:03:26.304Z,94793.44
2019-04-03T20:05:55.310Z,94794.96
2019-04-03T20:08:24.047Z,94798.16
2019-04-03T20:10:52.717Z,94784.64
2019-04-03T20:13:21.274Z,94786.61
2019-04-03T20:15:49.775Z,94775.97
2019-04-03T20:18:18.435Z,94789.20
2019-04-03T20:20:47.176Z,94798.91
2019-04-03T20:23:15.728Z,94792.70
2019-04-03T20:25:45.911Z,94793.58
2019-04-03T20:28:14.878Z,94798.32
2019-04-03T20:30:43.581Z,94795.27
2019-04-03T20:33:12.295Z,94794.34
2019-04-03T20:35:40.886Z,94797.55
2019-04-03T20:38:09.373Z,94792.22
2019-04-03T20:40:39.837Z,94790.24
2019-04-03T20:43:11.199Z,94792.20
2019-04-03T20:45:38.871Z,94789.30
2019-04-03T20:48:07.404Z,94799.64
2019-04-03T20:50:38.133Z,94794.32
2019-04-03T20:53:06.388Z,94807.70
2019-04-03T20:55:35.253Z,94795.98
2019-04-03T20:58:06.783Z,94800.08
2019-04-03T21:00:35.487Z,94809.64
2019-04-03T21:03:04.154Z,94803.53
2019-04-03T21:05:32.787Z,94797.89
2019-04-03T21:08:01.280Z,94815.64
2019-04-03T21:10:31.430Z,94805.31
2019-04-03T21:13:00.250Z,94818.64
2019-04-03T21:15:28.807Z,94816.65
2019-04-03T21:17:57.474Z,94812.09
2019-04-03T21:20:26.109Z,94819.38
2019-04-03T21:22:54.732Z,94806.92
2019-04-03T21:25:23.375Z,94812.66
2019-04-03T21:27:51.998Z,94818.91
2019-04-03T21:30:23.696Z,94814.91
2019-04-03T21:32:50.886Z,94824.77
2019-04-03T21:35:19.435Z,94825.84
2019-04-03T21:37:48.063Z,94826.72
2019-04-03T21:40:16.909Z,94833.55
2019-04-03T21:42:45.404Z,94826.09
2019-04-03T21:45:14.132Z,94832.18
2019-04-03T21:47:43.292Z,94830.76
2019-04-03T21:50:12.287Z,94827.73
2019-04-03T21:52:40.913Z,94836.98
2019-04-03T21:55:09.977Z,94834.66
2019-04-03T21:57:38.718Z,94835.75
2019-04-03T22:00:13.220Z,94834.98
2019-04-03T22:02:40.712Z,94834.69
2019-04-03T22:05:09.644Z,94833.30
2019-04-03T22:07:38.315Z,94828.63
2019-04-03T22:10:09.026Z,94828.77
2019-04-03T22:12:37.659Z,94837.86
2019-04-03T22:15:07.744Z,94827.80
2019-04-03T22:17:36.364Z,94831.23
2019-04-03T22:20:05.889Z,94841.12
2019-04-03T22:22:34.564Z,94827.16
2019-04-03T22:25:03.406Z,94847.11
2019-04-03T22:27:31.896Z,94829.66
2019-04-03T22:30:00.517Z,94826.29
2019-04-03T22:32:29.233Z,94831.63
2019-04-03T22:35:00.565Z,94823.27
2019-04-03T22:37:28.156Z,94837.81
2019-04-03T22:39:56.820Z,94830.68
2019-04-03T22:42:25.391Z,94826.85
2019-04-03T22:44:53.868Z,94831.59
2019-04-03T22:47:23.061Z,94843.06
2019-04-03T22:49:53.148Z,94837.77
2019-04-03T22:52:21.631Z,94832.91
2019-04-03T22:54:50.163Z,94829.91
2019-04-03T22:57:19.779Z,94836.23
2019-04-03T22:59:48.797Z,94831.77
2019-04-03T23:02:17.326Z,94828.17
2019-04-03T23:04:46.390Z,94826.89
2019-04-03T23:07:15.175Z,94821.58
2019-04-03T23:09:43.843Z,94820.84
2019-04-03T23:12:12.467Z,94819.61
2019-04-03T23:14:41.092Z,94818.11
2019-04-03T23:17:09.755Z,94822.63
2019-04-03T23:19:38.377Z,94809.59
2019-04-03T23:22:07.026Z,94820.59
2019-04-03T23:24:35.717Z,94829.88
2019-04-03T23:27:04.345Z,94819.70
2019-04-03T23:29:35.886Z,94816.16
2019-04-03T23:32:03.429Z,94822.93
2019-04-03T23:34:32.063Z,94820.67
2019-04-03T23:37:00.690Z,94826.67
2019-04-03T23:39:29.359Z,94820.75
2019-04-03T23:41:57.985Z,94818.02
2019-04-03T23:44:26.619Z,94824.19
2019-04-03T23:46:55.358Z,94828.23
2019-04-03T23:49:23.983Z,94821.84
2019-04-03T23:51:52.616Z,94822.25
2019-04-03T23:54:21.242Z,94825.39
2019-04-03T23:56:49.871Z,94815.20
2019-04-03T23:59:18.674Z,94808.05
